Time;durP1;ratioP1;P1;durP2;ratioP2;P2;SDS_P1;SDS_P2;PMS_P1;PMS_P2;Temp;Humidity;BMP_temperature;BMP_pressure;BME280_temperature;BME280_humidity;BME280_pressure;Samples;Min_cycle;Max_cycle;Signal;HPM_P1;HPM_P2
2022/12/25 00:01:07;;;;;;;69.65;21.08;;;;;;;;;;5038587;28;20083;-73
2022/12/25 00:03:33;;;;;;;76.95;21.33;;;;;;;;;;5040730;28;20124;-73
2022/12/25 00:05:59;;;;;;;84.13;24.23;;;;;;;;;;5047590;28;20510;-73
2022/12/25 00:08:25;;;;;;;89.00;21.52;;;;;;;;;;5048497;28;20056;-73
2022/12/25 00:10:58;;;;;;;75.72;19.45;;;;;;;;;;5046252;28;20066;-73
2022/12/25 00:13:24;;;;;;;74.07;21.63;;;;;;;;;;5046965;28;20083;-73
2022/12/25 00:15:50;;;;;;;84.65;25.17;;;;;;;;;;5038928;28;20453;-73
2022/12/25 00:18:16;;;;;;;80.75;22.15;;;;;;;;;;5050274;28;20531;-73
2022/12/25 00:20:42;;;;;;;94.38;22.77;;;;;;;;;;5051627;28;20117;-73
2022/12/25 00:23:08;;;;;;;77.05;22.10;;;;;;;;;;5036952;28;20049;-73
2022/12/25 00:25:34;;;;;;;78.70;21.33;;;;;;;;;;5045824;28;20029;-73
2022/12/25 00:28:00;;;;;;;135.70;26.73;;;;;;;;;;5037186;28;20036;-73
2022/12/25 00:30:26;;;;;;;78.45;20.27;;;;;;;;;;5037615;28;20132;-73
2022/12/25 00:32:52;;;;;;;84.95;21.67;;;;;;;;;;5047267;28;20108;-73
2022/12/25 00:35:18;;;;;;;76.22;21.85;;;;;;;;;;5050480;28;20988;-73
2022/12/25 00:37:44;;;;;;;82.45;23.77;;;;;;;;;;5044082;28;20037;-73
2022/12/25 00:40:10;;;;;;;81.28;21.15;;;;;;;;;;5048449;28;20040;-72
2022/12/25 00:42:36;;;;;;;79.00;25.02;;;;;;;;;;5045317;28;20030;-73
2022/12/25 00:45:03;;;;;;;88.95;22.05;;;;;;;;;;5051211;28;20520;-73
2022/12/25 00:47:29;;;;;;;84.55;23.85;;;;;;;;;;5034458;28;20021;-72
2022/12/25 00:49:55;;;;;;;86.30;21.00;;;;;;;;;;5032256;28;20032;-73
2022/12/25 00:52:21;;;;;;;70.97;21.45;;;;;;;;;;5045655;28;20048;-72
2022/12/25 00:54:47;;;;;;;83.25;21.00;;;;;;;;;;5030005;28;20705;-72
2022/12/25 00:57:13;;;;;;;87.03;21.17;;;;;;;;;;5033857;28;20048;-72
2022/12/25 00:59:39;;;;;;;85.63;23.70;;;;;;;;;;5048083;28;20037;-72
2022/12/25 01:02:23;;;;;;;82.93;23.60;;;;;;;;;;5045671;28;20159;-74
2022/12/25 01:04:50;;;;;;;96.75;23.00;;;;;;;;;;5029795;28;20044;-72
2022/12/25 01:07:16;;;;;;;76.63;22.73;;;;;;;;;;5034426;28;20135;-72
2022/12/25 01:12:28;;;;;;;83.75;22.83;;;;;;;;;;5046261;28;20127;-72
2022/12/25 01:14:54;;;;;;;93.47;23.05;;;;;;;;;;5046870;28;20028;-72
2022/12/25 01:17:20;;;;;;;75.15;22.15;;;;;;;;;;5046329;28;20037;-73
2022/12/25 01:19:46;;;;;;;86.43;22.63;;;;;;;;;;5045785;28;20043;-72
2022/12/25 01:22:12;;;;;;;71.55;22.10;;;;;;;;;;5047057;28;20413;-72
2022/12/25 01:24:38;;;;;;;84.25;21.40;;;;;;;;;;5049158;28;20032;-72
2022/12/25 01:27:04;;;;;;;80.15;22.20;;;;;;;;;;5050429;28;20285;-72
2022/12/25 01:29:30;;;;;;;90.93;21.63;;;;;;;;;;5047569;28;20529;-72
2022/12/25 01:31:56;;;;;;;71.78;21.83;;;;;;;;;;5048464;28;20111;-72
2022/12/25 01:34:22;;;;;;;109.80;23.75;;;;;;;;;;5047520;28;20036;-72
2022/12/25 01:36:48;;;;;;;77.68;20.58;;;;;;;;;;5049302;28;20497;-72
2022/12/25 01:39:14;;;;;;;78.07;21.88;;;;;;;;;;5047672;28;20029;-73
2022/12/25 01:41:40;;;;;;;76.40;22.30;;;;;;;;;;5047299;28;20033;-72
2022/12/25 01:44:08;;;;;;;77.90;23.30;;;;;;;;;;5048330;28;20037;-72
2022/12/25 01:46:34;;;;;;;86.72;21.38;;;;;;;;;;5050330;28;20489;-72
2022/12/25 01:49:05;;;;;;;74.63;22.50;;;;;;;;;;5044663;28;20123;-73
2022/12/25 01:51:35;;;;;;;88.80;24.50;;;;;;;;;;5042866;28;20029;-72
2022/12/25 01:54:03;;;;;;;76.05;24.35;;;;;;;;;;5046462;28;20040;-73
2022/12/25 01:56:30;;;;;;;68.45;22.10;;;;;;;;;;5050230;28;20039;-73
2022/12/25 01:58:56;;;;;;;83.80;23.98;;;;;;;;;;5047426;28;20269;-73
2022/12/25 02:01:22;;;;;;;79.75;23.85;;;;;;;;;;5050570;28;20087;-72
2022/12/25 02:03:48;;;;;;;97.15;23.25;;;;;;;;;;5041636;28;20500;-73
2022/12/25 02:06:15;;;;;;;92.78;24.75;;;;;;;;;;5048317;28;20041;-73
2022/12/25 02:08:41;;;;;;;86.38;24.23;;;;;;;;;;5048047;28;20033;-73
2022/12/25 02:11:55;;;;;;;75.68;23.38;;;;;;;;;;5048562;28;20496;-73
2022/12/25 02:13:54;;;;;;;83.60;24.45;;;;;;;;;;5042960;28;20499;-72
2022/12/25 02:16:22;;;;;;;81.70;24.63;;;;;;;;;;5036724;28;20156;-72
2022/12/25 02:18:53;;;;;;;81.07;24.60;;;;;;;;;;5037592;28;20155;-72
2022/12/25 02:21:19;;;;;;;80.47;24.40;;;;;;;;;;5048494;28;20058;-72
2022/12/25 02:23:54;;;;;;;86.30;26.90;;;;;;;;;;5049973;28;20579;-72
2022/12/25 02:26:36;;;;;;;84.18;25.73;;;;;;;;;;5052802;28;20033;-72
2022/12/25 02:29:02;;;;;;;80.18;25.23;;;;;;;;;;5040574;28;20029;-72
2022/12/25 02:31:31;;;;;;;85.75;28.05;;;;;;;;;;5039009;28;20032;-72
2022/12/25 02:34:04;;;;;;;73.78;27.13;;;;;;;;;;5050792;28;20180;-71
2022/12/25 02:36:36;;;;;;;83.28;28.15;;;;;;;;;;5043518;28;20125;-71
2022/12/25 02:41:52;;;;;;;79.57;27.13;;;;;;;;;;5038651;28;20594;-71
2022/12/25 03:06:42;;;;;;;80.65;27.90;;;;;;;;;;5050932;28;20048;-72
2022/12/25 03:12:01;;;;;;;88.28;30.08;;;;;;;;;;5046395;28;20527;-72
2022/12/25 03:17:12;;;;;;;85.47;28.88;;;;;;;;;;5049005;28;20083;-73
2022/12/25 03:28:01;;;;;;;91.22;29.02;;;;;;;;;;5052227;28;20492;-72
2022/12/25 03:33:18;;;;;;;82.50;29.77;;;;;;;;;;5049172;28;20040;-72
2022/12/25 03:36:04;;;;;;;93.78;27.05;;;;;;;;;;5064471;28;20454;-73
2022/12/25 04:36:49;;;;;;;95.90;31.58;;;;;;;;;;5048573;28;20052;-72
2022/12/25 04:39:15;;;;;;;96.30;31.40;;;;;;;;;;5045537;28;20037;-73
2022/12/25 04:41:41;;;;;;;88.28;30.38;;;;;;;;;;5050314;28;20076;-72
2022/12/25 04:44:08;;;;;;;103.40;31.85;;;;;;;;;;5044056;28;20025;-72
2022/12/25 04:46:34;;;;;;;89.07;30.25;;;;;;;;;;5046964;28;20033;-73
2022/12/25 04:49:00;;;;;;;90.47;29.55;;;;;;;;;;5047363;28;20098;-73
2022/12/25 04:51:26;;;;;;;94.63;31.35;;;;;;;;;;5049857;28;20056;-73
2022/12/25 04:53:52;;;;;;;87.95;30.65;;;;;;;;;;5047577;28;20032;-73
2022/12/25 04:56:19;;;;;;;76.10;29.38;;;;;;;;;;5038510;28;20249;-73
2022/12/25 04:58:45;;;;;;;88.63;29.73;;;;;;;;;;5051265;28;20471;-73
2022/12/25 05:01:11;;;;;;;90.57;29.85;;;;;;;;;;5043958;28;20028;-73
2022/12/25 05:03:38;;;;;;;107.57;32.83;;;;;;;;;;5038184;28;20033;-73
2022/12/25 05:06:04;;;;;;;91.47;30.48;;;;;;;;;;5035682;28;20188;-73
2022/12/25 05:08:31;;;;;;;121.40;47.55;;;;;;;;;;5045519;28;20114;-73
2022/12/25 05:10:57;;;;;;;100.75;39.33;;;;;;;;;;5044191;28;20032;-73
2022/12/25 05:13:23;;;;;;;97.43;31.63;;;;;;;;;;5029985;28;20029;-73
2022/12/25 05:15:49;;;;;;;96.88;31.58;;;;;;;;;;5039462;28;20124;-73
2022/12/25 05:18:15;;;;;;;121.05;32.20;;;;;;;;;;5021809;28;20486;-73
2022/12/25 05:20:41;;;;;;;112.55;33.70;;;;;;;;;;5027213;28;20057;-74
2022/12/25 05:23:10;;;;;;;114.25;32.47;;;;;;;;;;5028710;28;20478;-73
2022/12/25 05:25:38;;;;;;;138.90;33.83;;;;;;;;;;5028525;28;20308;-73
2022/12/25 05:28:04;;;;;;;106.32;32.33;;;;;;;;;;5018902;28;20493;-73
2022/12/25 05:30:30;;;;;;;120.75;36.42;;;;;;;;;;5001271;28;20061;-72
2022/12/25 05:32:56;;;;;;;107.43;32.83;;;;;;;;;;5001401;28;20030;-73
2022/12/25 05:35:24;;;;;;;114.05;33.78;;;;;;;;;;5007019;28;20447;-74
2022/12/25 05:37:50;;;;;;;110.75;34.63;;;;;;;;;;5009519;28;20039;-73
2022/12/25 05:40:16;;;;;;;104.18;34.70;;;;;;;;;;5028647;28;20074;-72
2022/12/25 05:42:42;;;;;;;109.80;36.13;;;;;;;;;;5024441;28;20355;-73
2022/12/25 05:45:09;;;;;;;109.53;35.33;;;;;;;;;;5028030;28;20442;-73
2022/12/25 05:47:35;;;;;;;117.55;36.25;;;;;;;;;;5027927;28;20036;-73
2022/12/25 05:50:02;;;;;;;120.70;34.92;;;;;;;;;;5027135;28;20514;-72
2022/12/25 05:52:34;;;;;;;93.68;33.45;;;;;;;;;;5020784;28;20057;-73
2022/12/25 05:55:00;;;;;;;87.80;33.10;;;;;;;;;;5033217;28;20503;-74
2022/12/25 05:57:30;;;;;;;99.75;33.42;;;;;;;;;;5028367;28;20120;-72
2022/12/25 05:59:56;;;;;;;89.75;33.50;;;;;;;;;;5024656;28;20467;-73
2022/12/25 06:02:22;;;;;;;90.38;34.88;;;;;;;;;;5030635;28;20030;-73
2022/12/25 06:04:48;;;;;;;99.22;35.85;;;;;;;;;;5032533;28;20072;-73
2022/12/25 06:07:14;;;;;;;94.18;33.22;;;;;;;;;;5026623;28;20033;-73
2022/12/25 06:09:40;;;;;;;89.22;33.13;;;;;;;;;;5030376;28;20120;-73
2022/12/25 06:12:06;;;;;;;98.97;32.50;;;;;;;;;;5028959;28;20030;-72
2022/12/25 06:14:33;;;;;;;95.97;32.60;;;;;;;;;;5032568;28;20071;-72
2022/12/25 06:16:59;;;;;;;91.13;32.83;;;;;;;;;;5048284;28;20357;-73
2022/12/25 06:19:25;;;;;;;94.90;35.17;;;;;;;;;;5051684;28;20335;-72
2022/12/25 06:21:54;;;;;;;90.32;32.92;;;;;;;;;;5033800;28;20529;-73
2022/12/25 06:24:21;;;;;;;87.40;31.77;;;;;;;;;;5050611;28;20041;-72
2022/12/25 06:26:47;;;;;;;85.57;31.38;;;;;;;;;;5050076;28;20457;-72
2022/12/25 06:29:13;;;;;;;87.00;30.00;;;;;;;;;;5045377;28;20419;-72
2022/12/25 06:31:39;;;;;;;86.78;31.50;;;;;;;;;;5034348;28;20037;-72
2022/12/25 06:34:05;;;;;;;72.50;28.65;;;;;;;;;;5049625;28;20037;-73
2022/12/25 06:36:31;;;;;;;85.78;30.60;;;;;;;;;;5052972;28;20084;-72
2022/12/25 06:38:59;;;;;;;81.45;29.98;;;;;;;;;;5042279;28;20033;-72
2022/12/25 06:41:26;;;;;;;92.75;30.00;;;;;;;;;;5049875;28;20091;-72
2022/12/25 06:43:56;;;;;;;85.20;30.13;;;;;;;;;;5050876;28;20037;-72
2022/12/25 06:46:23;;;;;;;76.68;28.13;;;;;;;;;;5052395;28;20108;-72
2022/12/25 06:48:50;;;;;;;77.57;29.85;;;;;;;;;;5020146;28;20033;-73
2022/12/25 06:51:17;;;;;;;76.18;27.88;;;;;;;;;;5047939;28;20036;-72
2022/12/25 06:53:43;;;;;;;67.20;26.55;;;;;;;;;;5050237;28;20025;-73
2022/12/25 06:56:14;;;;;;;66.05;29.50;;;;;;;;;;5050523;28;20457;-73
2022/12/25 06:58:50;;;;;;;78.18;26.63;;;;;;;;;;5048260;28;20032;-73
2022/12/25 07:01:21;;;;;;;72.95;27.98;;;;;;;;;;5031031;28;20033;-72
2022/12/25 07:03:48;;;;;;;75.07;27.92;;;;;;;;;;5047059;28;20021;-73
2022/12/25 07:06:14;;;;;;;68.15;27.73;;;;;;;;;;5050847;28;20036;-72
2022/12/25 07:08:40;;;;;;;82.25;27.85;;;;;;;;;;5049663;28;20040;-73
2022/12/25 07:11:06;;;;;;;77.18;27.67;;;;;;;;;;5017045;28;20147;-73
2022/12/25 07:13:32;;;;;;;81.80;28.08;;;;;;;;;;5039436;28;20743;-72
2022/12/25 07:15:59;;;;;;;72.68;27.08;;;;;;;;;;5050842;28;20053;-72
2022/12/25 07:18:25;;;;;;;62.60;25.52;;;;;;;;;;5050985;28;20032;-72
2022/12/25 07:20:51;;;;;;;59.58;26.08;;;;;;;;;;5050239;28;20083;-74
2022/12/25 07:23:18;;;;;;;55.35;27.35;;;;;;;;;;5047066;28;20372;-72
2022/12/25 07:25:52;;;;;;;72.20;26.88;;;;;;;;;;5045142;28;20029;-72
2022/12/25 07:28:18;;;;;;;65.13;25.17;;;;;;;;;;5050946;28;20036;-72
2022/12/25 07:30:44;;;;;;;59.20;23.92;;;;;;;;;;5048074;28;20076;-72
2022/12/25 07:33:10;;;;;;;56.42;24.50;;;;;;;;;;5041866;28;20401;-72
2022/12/25 07:35:36;;;;;;;54.30;23.00;;;;;;;;;;5052967;28;20037;-73
2022/12/25 07:38:02;;;;;;;65.35;25.00;;;;;;;;;;5042958;28;20040;-73
2022/12/25 07:40:28;;;;;;;69.90;23.70;;;;;;;;;;5049461;28;20076;-72
2022/12/25 07:42:54;;;;;;;66.70;23.83;;;;;;;;;;5051846;28;20053;-73
2022/12/25 07:45:20;;;;;;;47.83;22.63;;;;;;;;;;5045284;28;20033;-71
2022/12/25 07:47:46;;;;;;;57.08;26.98;;;;;;;;;;5050370;28;20363;-76
2022/12/25 07:50:12;;;;;;;55.20;22.58;;;;;;;;;;5049234;28;20025;-72
2022/12/25 07:52:38;;;;;;;47.20;21.05;;;;;;;;;;5046763;28;20076;-72
2022/12/25 07:55:04;;;;;;;48.00;20.73;;;;;;;;;;5046899;28;20037;-71
2022/12/25 07:57:30;;;;;;;46.83;20.58;;;;;;;;;;5050268;28;20315;-72
2022/12/25 07:59:56;;;;;;;47.33;20.88;;;;;;;;;;5055828;28;20104;-72
2022/12/25 08:02:27;;;;;;;47.05;20.75;;;;;;;;;;5048173;28;20132;-71
2022/12/25 08:04:56;;;;;;;54.22;20.70;;;;;;;;;;5042377;28;20032;-72
2022/12/25 08:07:22;;;;;;;50.65;21.55;;;;;;;;;;5038877;28;20080;-73
2022/12/25 08:09:48;;;;;;;42.92;19.05;;;;;;;;;;5035329;28;20112;-72
2022/12/25 08:12:14;;;;;;;54.13;19.52;;;;;;;;;;5048226;28;20519;-72
2022/12/25 08:14:41;;;;;;;47.28;18.90;;;;;;;;;;5046731;28;20036;-71
2022/12/25 08:17:07;;;;;;;41.25;20.17;;;;;;;;;;5022513;28;20052;-72
2022/12/25 08:19:33;;;;;;;40.97;18.70;;;;;;;;;;5032050;28;20061;-72
2022/12/25 08:21:59;;;;;;;40.95;18.25;;;;;;;;;;5029732;28;20033;-73
2022/12/25 08:24:25;;;;;;;39.15;17.80;;;;;;;;;;5031282;28;20093;-72
2022/12/25 08:26:51;;;;;;;42.03;17.83;;;;;;;;;;5016997;28;20040;-73
2022/12/25 08:29:17;;;;;;;39.80;19.05;;;;;;;;;;5026620;28;20037;-72
2022/12/25 08:31:43;;;;;;;37.95;18.40;;;;;;;;;;4995009;28;20038;-73
2022/12/25 08:34:10;;;;;;;33.47;17.83;;;;;;;;;;5003924;28;20418;-72
2022/12/25 08:36:36;;;;;;;43.80;18.20;;;;;;;;;;5028955;28;20051;-72
2022/12/25 08:39:03;;;;;;;45.55;18.90;;;;;;;;;;5013059;28;20037;-72
2022/12/25 08:41:29;;;;;;;40.35;16.00;;;;;;;;;;5018969;28;20024;-70
2022/12/25 08:43:55;;;;;;;38.20;16.05;;;;;;;;;;5019343;28;20029;-71
2022/12/25 08:46:21;;;;;;;33.28;15.80;;;;;;;;;;5021696;28;20046;-72
2022/12/25 08:48:48;;;;;;;37.22;15.40;;;;;;;;;;5025676;28;20026;-72
2022/12/25 08:51:15;;;;;;;37.25;17.33;;;;;;;;;;5029424;28;20041;-72
2022/12/25 08:53:45;;;;;;;33.42;15.95;;;;;;;;;;5030255;28;20030;-71
2022/12/25 08:56:12;;;;;;;39.72;18.17;;;;;;;;;;5023461;28;20049;-71
2022/12/25 08:58:38;;;;;;;39.05;17.02;;;;;;;;;;5030559;28;20350;-71
2022/12/25 09:01:04;;;;;;;35.03;13.95;;;;;;;;;;5026033;28;21425;-72
2022/12/25 09:03:31;;;;;;;31.42;13.10;;;;;;;;;;5010704;28;20037;-72
2022/12/25 09:06:01;;;;;;;34.95;13.57;;;;;;;;;;5005281;28;20124;-74
2022/12/25 09:08:27;;;;;;;29.83;14.43;;;;;;;;;;5021470;28;20037;-71
2022/12/25 09:10:53;;;;;;;35.92;13.32;;;;;;;;;;5007397;28;20029;-72
2022/12/25 09:13:19;;;;;;;32.25;15.07;;;;;;;;;;5028731;28;20108;-71
2022/12/25 09:15:45;;;;;;;36.00;13.55;;;;;;;;;;5033205;28;20060;-72
2022/12/25 09:18:11;;;;;;;27.80;12.93;;;;;;;;;;5031985;28;20025;-72
2022/12/25 09:20:37;;;;;;;27.83;12.35;;;;;;;;;;5037785;28;20041;-73
2022/12/25 09:23:03;;;;;;;25.55;14.25;;;;;;;;;;5031430;28;20036;-74
2022/12/25 09:25:29;;;;;;;35.25;13.88;;;;;;;;;;5031924;28;20393;-73
2022/12/25 09:27:56;;;;;;;30.13;12.85;;;;;;;;;;5045507;28;20037;-73
2022/12/25 09:30:22;;;;;;;31.95;12.05;;;;;;;;;;5043875;28;20036;-72
2022/12/25 09:32:48;;;;;;;29.58;13.50;;;;;;;;;;5038049;28;20024;-73
2022/12/25 09:35:16;;;;;;;26.92;12.88;;;;;;;;;;5026836;28;20037;-73
2022/12/25 09:37:42;;;;;;;25.45;11.70;;;;;;;;;;5051100;28;20441;-73
2022/12/25 09:40:10;;;;;;;27.45;12.35;;;;;;;;;;5054288;28;20047;-72
2022/12/25 09:42:36;;;;;;;27.35;12.57;;;;;;;;;;5042551;28;20025;-74
2022/12/25 09:45:04;;;;;;;22.40;12.93;;;;;;;;;;5044171;28;20550;-73
2022/12/25 09:47:31;;;;;;;29.48;12.05;;;;;;;;;;5049389;28;20521;-73
2022/12/25 09:49:57;;;;;;;19.65;11.77;;;;;;;;;;5050161;28;20354;-73
2022/12/25 09:52:44;;;;;;;25.00;12.40;;;;;;;;;;5029163;28;20025;-73
2022/12/25 09:55:10;;;;;;;21.50;12.13;;;;;;;;;;5023100;28;20041;-72
2022/12/25 09:57:36;;;;;;;22.55;11.88;;;;;;;;;;5029712;28;20128;-74
2022/12/25 10:00:02;;;;;;;19.67;10.77;;;;;;;;;;5057719;28;20442;-75
2022/12/25 10:02:31;;;;;;;23.77;11.63;;;;;;;;;;5046818;28;20459;-73
2022/12/25 10:04:57;;;;;;;26.58;12.80;;;;;;;;;;5033864;28;20462;-74
2022/12/25 10:07:34;;;;;;;23.40;12.43;;;;;;;;;;5052427;28;20028;-73
2022/12/25 10:10:07;;;;;;;21.90;12.52;;;;;;;;;;5034986;28;20047;-73
2022/12/25 10:12:59;;;;;;;27.00;11.55;;;;;;;;;;5051418;28;20033;-72
2022/12/25 10:15:25;;;;;;;20.95;12.57;;;;;;;;;;5035431;28;20059;-72
2022/12/25 10:18:07;;;;;;;32.75;20.23;;;;;;;;;;5049982;28;20117;-71
2022/12/25 10:20:39;;;;;;;23.63;13.07;;;;;;;;;;5052478;28;20036;-72
2022/12/25 10:23:09;;;;;;;20.23;11.18;;;;;;;;;;5050361;28;20493;-73
2022/12/25 10:25:36;;;;;;;25.58;12.50;;;;;;;;;;5014519;28;20044;-73
2022/12/25 10:28:04;;;;;;;17.95;11.85;;;;;;;;;;5051645;28;20157;-73
2022/12/25 10:30:31;;;;;;;17.10;10.40;;;;;;;;;;5038577;28;20025;-74
2022/12/25 10:32:57;;;;;;;18.38;10.65;;;;;;;;;;5033048;28;20083;-72
2022/12/25 10:35:25;;;;;;;20.05;10.18;;;;;;;;;;5050337;28;20469;-73
2022/12/25 10:38:01;;;;;;;18.05;9.98;;;;;;;;;;5049923;28;20041;-73
2022/12/25 10:40:30;;;;;;;18.25;9.68;;;;;;;;;;5022386;28;20190;-74
2022/12/25 10:43:15;;;;;;;18.83;8.85;;;;;;;;;;5039340;28;20324;-72
2022/12/25 10:45:45;;;;;;;16.48;10.35;;;;;;;;;;5044248;28;20506;-73
2022/12/25 10:48:17;;;;;;;17.45;10.80;;;;;;;;;;5032396;28;20543;-73
2022/12/25 10:50:43;;;;;;;17.20;10.05;;;;;;;;;;5048271;28;20041;-73
2022/12/25 10:53:16;;;;;;;17.08;10.35;;;;;;;;;;5051875;28;20040;-72
2022/12/25 10:55:42;;;;;;;19.10;10.25;;;;;;;;;;5047122;28;20045;-73
2022/12/25 10:58:19;;;;;;;16.33;9.65;;;;;;;;;;5050072;28;20021;-74
2022/12/25 11:00:51;;;;;;;15.05;8.57;;;;;;;;;;5022938;28;20498;-75
2022/12/25 11:03:21;;;;;;;17.67;9.87;;;;;;;;;;5029015;28;20183;-74
2022/12/25 11:05:50;;;;;;;20.90;11.18;;;;;;;;;;5042477;28;20287;-72
2022/12/25 11:08:27;;;;;;;54.17;32.80;;;;;;;;;;5033363;28;20029;-71
2022/12/25 11:10:57;;;;;;;10.50;7.40;;;;;;;;;;5050493;28;20033;-73
2022/12/25 11:13:25;;;;;;;15.23;8.32;;;;;;;;;;5025913;28;20029;-73
2022/12/25 11:16:02;;;;;;;12.60;7.82;;;;;;;;;;5044404;28;20068;-73
2022/12/25 11:18:29;;;;;;;14.48;7.25;;;;;;;;;;5051220;28;20100;-73
2022/12/25 11:21:00;;;;;;;14.77;7.65;;;;;;;;;;5014726;28;20079;-70
2022/12/25 11:23:27;;;;;;;18.30;8.35;;;;;;;;;;5050326;28;20021;-71
2022/12/25 11:25:55;;;;;;;16.10;8.18;;;;;;;;;;5037279;28;20033;-73
2022/12/25 11:28:21;;;;;;;15.13;8.27;;;;;;;;;;5059541;28;20111;-75
2022/12/25 11:30:52;;;;;;;14.77;7.40;;;;;;;;;;5045688;28;20108;-74
2022/12/25 11:33:20;;;;;;;11.02;7.43;;;;;;;;;;5027865;28;20056;-74
2022/12/25 11:35:49;;;;;;;14.95;7.90;;;;;;;;;;5048373;28;20047;-74
2022/12/25 11:38:15;;;;;;;14.57;7.53;;;;;;;;;;5032880;28;20035;-75
2022/12/25 11:40:44;;;;;;;12.90;7.65;;;;;;;;;;5046409;28;20036;-75
2022/12/25 11:43:10;;;;;;;15.25;7.50;;;;;;;;;;5050197;28;20044;-74
2022/12/25 11:45:38;;;;;;;14.20;8.68;;;;;;;;;;5051406;28;20029;-73
2022/12/25 11:48:13;;;;;;;17.88;8.02;;;;;;;;;;5051738;28;20057;-73
2022/12/25 11:50:48;;;;;;;17.67;8.65;;;;;;;;;;5045130;28;20087;-74
2022/12/25 11:53:21;;;;;;;18.05;8.23;;;;;;;;;;5045615;28;20517;-73
2022/12/25 11:55:53;;;;;;;15.63;9.10;;;;;;;;;;5029957;28;20359;-73
2022/12/25 11:58:32;;;;;;;17.50;8.57;;;;;;;;;;5011624;28;20113;-73
2022/12/25 12:01:00;;;;;;;15.70;7.25;;;;;;;;;;5040685;28;20033;-74
2022/12/25 12:03:37;;;;;;;17.13;9.32;;;;;;;;;;5031246;28;20480;-75
2022/12/25 12:06:06;;;;;;;12.23;6.88;;;;;;;;;;5029876;28;20589;-74
2022/12/25 12:08:33;;;;;;;15.45;8.10;;;;;;;;;;5043974;28;20037;-72
2022/12/25 12:11:15;;;;;;;14.30;8.10;;;;;;;;;;5053250;28;20033;-73
2022/12/25 12:13:42;;;;;;;15.07;7.60;;;;;;;;;;5050429;28;20087;-73
2022/12/25 12:16:09;;;;;;;18.08;8.23;;;;;;;;;;5050705;28;20049;-72
2022/12/25 12:18:36;;;;;;;19.05;10.23;;;;;;;;;;5017784;28;20037;-73
2022/12/25 12:21:07;;;;;;;15.60;8.15;;;;;;;;;;5012876;28;20025;-73
2022/12/25 12:23:35;;;;;;;21.13;10.00;;;;;;;;;;5026955;28;20379;-72
2022/12/25 12:26:02;;;;;;;24.08;8.98;;;;;;;;;;5025282;28;20104;-72
2022/12/25 12:28:31;;;;;;;14.85;8.25;;;;;;;;;;5025935;28;20025;-72
2022/12/25 12:31:01;;;;;;;17.88;8.32;;;;;;;;;;5010025;28;20037;-72
2022/12/25 12:33:29;;;;;;;36.88;20.73;;;;;;;;;;5026014;28;20080;-72
2022/12/25 12:35:56;;;;;;;20.95;9.30;;;;;;;;;;5027118;28;20038;-72
2022/12/25 12:38:23;;;;;;;25.60;13.23;;;;;;;;;;5010946;28;20033;-72
2022/12/25 12:40:53;;;;;;;15.00;7.93;;;;;;;;;;5018421;28;20057;-72
2022/12/25 12:43:22;;;;;;;22.30;8.75;;;;;;;;;;5026902;28;20457;-74
2022/12/25 12:45:53;;;;;;;19.63;9.00;;;;;;;;;;5017315;28;20084;-73
2022/12/25 12:48:24;;;;;;;15.03;9.30;;;;;;;;;;5033827;28;20108;-72
2022/12/25 12:51:01;;;;;;;18.23;9.50;;;;;;;;;;5009241;28;20120;-74
2022/12/25 12:53:29;;;;;;;19.50;10.20;;;;;;;;;;5026409;28;20037;-73
2022/12/25 12:55:55;;;;;;;19.63;9.43;;;;;;;;;;5013138;28;20116;-72
2022/12/25 12:58:29;;;;;;;16.15;8.20;;;;;;;;;;5033130;28;20044;-73
2022/12/25 13:00:59;;;;;;;18.58;9.20;;;;;;;;;;5028714;28;20037;-73
2022/12/25 13:03:28;;;;;;;17.73;9.35;;;;;;;;;;5021221;28;20702;-74
2022/12/25 13:05:57;;;;;;;16.45;9.00;;;;;;;;;;5030080;28;20105;-72
2022/12/25 13:08:41;;;;;;;14.52;8.50;;;;;;;;;;5022173;28;20498;-72
2022/12/25 13:11:16;;;;;;;16.02;8.00;;;;;;;;;;5001180;28;20032;-72
2022/12/25 13:13:44;;;;;;;19.98;10.15;;;;;;;;;;5011065;28;20025;-72
2022/12/25 13:16:16;;;;;;;22.45;10.57;;;;;;;;;;5043632;28;20131;-72
2022/12/25 13:18:43;;;;;;;21.95;9.60;;;;;;;;;;5070095;28;20122;-73
2022/12/25 13:21:15;;;;;;;18.83;9.65;;;;;;;;;;5070584;28;20412;-72
2022/12/25 13:23:41;;;;;;;19.25;9.50;;;;;;;;;;5051565;28;20025;-73
2022/12/25 13:26:12;;;;;;;18.52;9.25;;;;;;;;;;5064742;28;20070;-73
2022/12/25 13:28:38;;;;;;;19.98;9.48;;;;;;;;;;5069457;28;20025;-74
2022/12/25 13:31:13;;;;;;;16.85;8.52;;;;;;;;;;5049573;28;20082;-73
2022/12/25 13:33:59;;;;;;;16.15;8.80;;;;;;;;;;5070029;28;20025;-72
2022/12/25 13:36:28;;;;;;;28.55;10.38;;;;;;;;;;5051005;28;20041;-71
2022/12/25 13:38:55;;;;;;;14.75;8.30;;;;;;;;;;5069875;28;20536;-72
2022/12/25 13:44:22;;;;;;;19.40;8.25;;;;;;;;;;5069765;28;20055;-71
2022/12/25 13:46:48;;;;;;;13.60;8.02;;;;;;;;;;5065814;28;20036;-72
2022/12/25 13:49:15;;;;;;;17.27;9.90;;;;;;;;;;5068780;28;20060;-72
2022/12/25 13:51:41;;;;;;;14.68;7.72;;;;;;;;;;5066242;28;20033;-71
2022/12/25 13:54:10;;;;;;;17.50;8.43;;;;;;;;;;5048771;28;20037;-71
2022/12/25 13:56:36;;;;;;;16.95;8.18;;;;;;;;;;5069255;28;20136;-72
2022/12/25 13:59:03;;;;;;;24.48;9.02;;;;;;;;;;5077715;28;20504;-72
2022/12/25 14:01:29;;;;;;;14.48;8.60;;;;;;;;;;5069922;28;20063;-72
2022/12/25 14:03:56;;;;;;;13.15;7.57;;;;;;;;;;5068575;28;20039;-72
2022/12/25 14:06:26;;;;;;;15.90;9.10;;;;;;;;;;5055006;28;20113;-71
2022/12/25 14:08:54;;;;;;;17.60;11.45;;;;;;;;;;5062757;28;20043;-72
2022/12/25 14:11:21;;;;;;;14.68;10.00;;;;;;;;;;5067827;28;20039;-73
2022/12/25 14:13:48;;;;;;;15.85;8.88;;;;;;;;;;5069761;28;20033;-72
2022/12/25 14:16:18;;;;;;;20.33;7.82;;;;;;;;;;5069153;28;20060;-72
2022/12/25 14:18:55;;;;;;;15.40;8.30;;;;;;;;;;5060892;28;20077;-72
2022/12/25 14:21:31;;;;;;;17.80;7.38;;;;;;;;;;5044218;28;20051;-72
2022/12/25 14:23:57;;;;;;;14.23;8.73;;;;;;;;;;5055386;28;20025;-73
2022/12/25 14:26:28;;;;;;;14.70;8.38;;;;;;;;;;5073239;28;20408;-72
2022/12/25 14:28:57;;;;;;;14.23;8.10;;;;;;;;;;5073133;28;20044;-71
2022/12/25 14:31:24;;;;;;;11.95;8.57;;;;;;;;;;5070976;28;20020;-72
2022/12/25 14:33:51;;;;;;;14.98;9.07;;;;;;;;;;5070898;28;20031;-73
2022/12/25 14:36:17;;;;;;;14.02;9.55;;;;;;;;;;5055480;28;20098;-72
2022/12/25 14:38:44;;;;;;;15.02;10.23;;;;;;;;;;5071242;28;20040;-72
2022/12/25 14:41:20;;;;;;;16.95;9.57;;;;;;;;;;5070482;28;20373;-72
2022/12/25 14:43:53;;;;;;;16.42;10.32;;;;;;;;;;5062162;28;20108;-72
2022/12/25 14:46:23;;;;;;;16.40;10.88;;;;;;;;;;5070236;28;20036;-71
2022/12/25 14:48:57;;;;;;;15.93;9.80;;;;;;;;;;5073096;28;20469;-72
2022/12/25 14:51:23;;;;;;;20.27;11.35;;;;;;;;;;5053430;28;20043;-72
2022/12/25 14:53:50;;;;;;;16.92;10.35;;;;;;;;;;5075187;28;20471;-72
2022/12/25 14:56:18;;;;;;;14.02;10.20;;;;;;;;;;5089734;28;20036;-72
2022/12/25 14:58:48;;;;;;;17.63;8.95;;;;;;;;;;5079870;28;20377;-73
2022/12/25 15:01:35;;;;;;;15.32;9.98;;;;;;;;;;5078407;28;20028;-72
2022/12/25 15:04:12;;;;;;;19.05;10.52;;;;;;;;;;5054342;28;20035;-71
2022/12/25 15:06:39;;;;;;;18.20;10.27;;;;;;;;;;5068816;28;20033;-71
2022/12/25 15:09:13;;;;;;;18.15;11.05;;;;;;;;;;5071342;28;20036;-71
2022/12/25 15:11:39;;;;;;;16.40;11.23;;;;;;;;;;5073101;28;20036;-71
2022/12/25 15:14:05;;;;;;;18.67;10.35;;;;;;;;;;5072157;28;20036;-71
2022/12/25 15:16:35;;;;;;;16.95;11.32;;;;;;;;;;5076822;28;20060;-71
2022/12/25 15:19:01;;;;;;;19.80;11.70;;;;;;;;;;5070804;28;20393;-72
2022/12/25 15:21:29;;;;;;;18.67;10.88;;;;;;;;;;5054307;28;20033;-72
2022/12/25 15:23:56;;;;;;;19.02;11.32;;;;;;;;;;5069091;28;20039;-71
2022/12/25 15:26:22;;;;;;;18.13;11.82;;;;;;;;;;5053346;28;20460;-71
2022/12/25 15:28:48;;;;;;;18.25;11.77;;;;;;;;;;5078061;28;20035;-71
2022/12/25 15:31:19;;;;;;;22.95;14.95;;;;;;;;;;5061864;28;20099;-72
2022/12/25 15:33:45;;;;;;;21.38;14.40;;;;;;;;;;5071050;28;20134;-72
2022/12/25 15:36:11;;;;;;;15.77;10.95;;;;;;;;;;5070764;28;20564;-71
2022/12/25 15:38:37;;;;;;;18.90;13.60;;;;;;;;;;5064876;28;20055;-72
2022/12/25 15:41:04;;;;;;;19.15;13.75;;;;;;;;;;5072131;28;20368;-71
2022/12/25 15:43:30;;;;;;;21.98;14.10;;;;;;;;;;5033135;28;20060;-71
2022/12/25 15:45:56;;;;;;;20.30;13.35;;;;;;;;;;5069377;28;20047;-72
2022/12/25 15:48:22;;;;;;;21.98;15.40;;;;;;;;;;5071118;28;20028;-71
2022/12/25 15:50:49;;;;;;;22.88;13.50;;;;;;;;;;5069958;28;20384;-71
2022/12/25 15:53:15;;;;;;;23.67;14.27;;;;;;;;;;5071868;28;20033;-73
2022/12/25 15:55:41;;;;;;;23.55;15.07;;;;;;;;;;5069928;28;20048;-71
2022/12/25 15:58:10;;;;;;;27.55;18.40;;;;;;;;;;5071132;28;20116;-73
2022/12/25 16:00:36;;;;;;;27.80;18.20;;;;;;;;;;5052688;28;20048;-72
2022/12/25 16:03:02;;;;;;;24.48;16.23;;;;;;;;;;5027203;28;20077;-73
2022/12/25 16:05:28;;;;;;;22.00;14.88;;;;;;;;;;5038929;28;20040;-73
2022/12/25 16:07:54;;;;;;;20.52;15.52;;;;;;;;;;5066677;28;20025;-70
2022/12/25 16:10:21;;;;;;;21.15;15.68;;;;;;;;;;5067433;28;20037;-72